createdAt,value
2018-03-07T00:00:25.065Z,91970.42
2018-03-07T00:02:52.726Z,91970.16
2018-03-07T00:05:20.359Z,91975.38
2018-03-07T00:07:47.948Z,91973.57
2018-03-07T00:10:15.579Z,91973.88
2018-03-07T00:12:43.206Z,91975.50
2018-03-07T00:15:10.902Z,91980.01
2018-03-07T00:17:38.624Z,91979.29
2018-03-07T00:20:06.275Z,91977.95
2018-03-07T00:22:33.892Z,91979.40
2018-03-07T00:25:01.540Z,91978.03
2018-03-07T00:27:29.121Z,91990.77
2018-03-07T00:29:56.741Z,91992.61
2018-03-07T00:32:24.397Z,91995.95
2018-03-07T00:34:51.990Z,91989.17
2018-03-07T00:37:19.582Z,91994.66
2018-03-07T00:39:47.360Z,91996.05
2018-03-07T00:42:14.986Z,91996.17
2018-03-07T00:44:42.589Z,92005.03
2018-03-07T00:47:10.334Z,92003.69
2018-03-07T00:49:37.980Z,92004.42
2018-03-07T00:52:05.566Z,92006.42
2018-03-07T00:54:33.300Z,92010.77
2018-03-07T00:57:00.892Z,92013.27
2018-03-07T00:59:28.533Z,92015.61
2018-03-07T01:01:56.185Z,92011.44
2018-03-07T01:04:23.816Z,92017.96
2018-03-07T01:06:51.446Z,92023.91
2018-03-07T01:09:19.063Z,92025.75
2018-03-07T01:11:46.770Z,92025.80
2018-03-07T01:14:14.396Z,92021.40
2018-03-07T01:16:42.004Z,92022.80
2018-03-07T01:19:09.642Z,92028.42
2018-03-07T01:21:37.339Z,92025.48
2018-03-07T01:24:04.925Z,92029.44
2018-03-07T01:26:32.522Z,92033.22
2018-03-07T01:29:00.179Z,92026.75
2018-03-07T01:31:27.765Z,92022.52
2018-03-07T01:33:55.361Z,92014.34
2018-03-07T01:36:22.994Z,92018.45
2018-03-07T01:38:50.653Z,92014.55
2018-03-07T01:41:18.227Z,92018.95
2018-03-07T01:43:45.837Z,92010.70
2018-03-07T01:46:13.477Z,92012.88
2018-03-07T01:48:41.114Z,92015.28
2018-03-07T01:51:08.778Z,92012.38
2018-03-07T01:53:36.419Z,92012.28
2018-03-07T01:56:04.011Z,92021.86
2018-03-07T01:58:31.671Z,92022.36
2018-03-07T02:00:59.325Z,92017.18
2018-03-07T02:03:26.922Z,92018.39
2018-03-07T02:05:54.560Z,92023.94
2018-03-07T02:08:23.352Z,92022.25
2018-03-07T02:10:51.033Z,92025.09
2018-03-07T02:13:18.753Z,92028.44
2018-03-07T02:15:46.393Z,92026.77
2018-03-07T02:18:14.061Z,92021.53
2018-03-07T02:20:41.720Z,92026.03
2018-03-07T02:23:09.321Z,92024.80
2018-03-07T02:25:36.916Z,92022.49
2018-03-07T02:28:04.571Z,92027.57
2018-03-07T02:30:32.156Z,92026.79
2018-03-07T02:32:59.823Z,92026.12
2018-03-07T02:35:27.513Z,92028.96
2018-03-07T02:37:55.224Z,92030.28
2018-03-07T02:40:23.673Z,92029.67
2018-03-07T02:42:51.311Z,92034.21
2018-03-07T02:45:19.006Z,92036.94
2018-03-07T02:47:46.641Z,92037.38
2018-03-07T02:50:14.244Z,92035.62
2018-03-07T02:52:41.913Z,92034.60
2018-03-07T02:55:09.600Z,92038.48
2018-03-07T02:57:37.233Z,92038.55
2018-03-07T03:00:04.877Z,92038.38
2018-03-07T03:02:32.544Z,92034.60
2018-03-07T03:05:00.152Z,92039.27
2018-03-07T03:07:27.846Z,92037.66
2018-03-07T03:09:55.498Z,92035.69
2018-03-07T03:12:23.147Z,92035.13
2018-03-07T03:14:50.760Z,92032.56
2018-03-07T03:17:18.380Z,92032.59
2018-03-07T03:19:46.003Z,92039.31
2018-03-07T03:22:13.647Z,92042.52
2018-03-07T03:24:41.276Z,92035.59
2018-03-07T03:27:08.890Z,92042.71
2018-03-07T03:29:36.517Z,92045.91
2018-03-07T03:32:04.158Z,92047.05
2018-03-07T03:34:31.975Z,92047.52
2018-03-07T03:36:59.576Z,92046.66
2018-03-07T03:39:27.227Z,92043.58
2018-03-07T03:41:54.887Z,92051.87
2018-03-07T03:44:22.498Z,92050.94
2018-03-07T03:46:50.103Z,92057.97
2018-03-07T03:49:17.774Z,92055.34
2018-03-07T03:51:45.426Z,92055.94
2018-03-07T03:54:13.188Z,92061.48
2018-03-07T03:56:41.357Z,92066.67
2018-03-07T03:59:08.932Z,92071.91
2018-03-07T04:01:36.583Z,92074.85
2018-03-07T04:04:04.241Z,92069.08
2018-03-07T04:06:32.018Z,92075.90
2018-03-07T04:08:59.614Z,92078.27
2018-03-07T04:11:27.281Z,92082.53
2018-03-07T04:13:54.883Z,92081.54
2018-03-07T04:16:22.462Z,92086.16
2018-03-07T04:18:50.120Z,92079.54
2018-03-07T04:21:17.835Z,92078.52
2018-03-07T04:23:45.493Z,92078.62
2018-03-07T04:26:13.094Z,92079.69
2018-03-07T04:28:40.927Z,92081.47
2018-03-07T04:31:08.605Z,92084.64
2018-03-07T04:33:36.180Z,92085.92
2018-03-07T04:36:03.831Z,92077.17
2018-03-07T04:38:31.462Z,92081.41
2018-03-07T04:40:59.148Z,92082.90
2018-03-07T04:43:26.821Z,92079.63
2018-03-07T04:45:54.559Z,92089.19
2018-03-07T04:48:22.143Z,92082.94
2018-03-07T04:50:49.809Z,92081.70
2018-03-07T04:53:18.020Z,92089.87
2018-03-07T04:55:45.676Z,92085.09
2018-03-07T04:58:13.278Z,92094.45
2018-03-07T05:00:41.005Z,92093.83
2018-03-07T05:03:08.664Z,92100.58
2018-03-07T05:05:36.389Z,92105.20
2018-03-07T05:08:04.120Z,92115.36
2018-03-07T05:10:31.891Z,92111.09
2018-03-07T05:12:59.481Z,92119.20
2018-03-07T05:15:27.142Z,92125.50
2018-03-07T05:17:54.776Z,92123.11
2018-03-07T05:20:22.412Z,92122.76
2018-03-07T05:22:50.004Z,92132.78
2018-03-07T05:25:17.653Z,92135.73
2018-03-07T05:27:45.355Z,92134.84
2018-03-07T05:30:13.056Z,92143.56
2018-03-07T05:32:40.712Z,92142.23
2018-03-07T05:35:08.306Z,92148.50
2018-03-07T05:37:35.963Z,92137.51
2018-03-07T05:40:03.620Z,92138.48
2018-03-07T05:42:31.299Z,92149.00
2018-03-07T05:44:58.970Z,92146.19
2018-03-07T05:47:26.628Z,92149.67
2018-03-07T05:49:54.247Z,92149.00
2018-03-07T05:52:21.951Z,92153.66
2018-03-07T05:54:49.559Z,92155.50
2018-03-07T05:57:17.262Z,92153.13
2018-03-07T05:59:44.856Z,92157.67
2018-03-07T06:02:12.502Z,92157.71
2018-03-07T06:04:40.097Z,92158.34
2018-03-07T06:07:07.722Z,92156.75
2018-03-07T06:09:35.338Z,92163.08
2018-03-07T06:12:03.576Z,92167.56
2018-03-07T06:14:31.238Z,92167.63
2018-03-07T06:16:58.858Z,92167.20
2018-03-07T06:19:26.512Z,92174.45
2018-03-07T06:21:54.190Z,92180.18
2018-03-07T06:24:21.822Z,92182.52
2018-03-07T06:26:49.438Z,92189.03
2018-03-07T06:29:17.214Z,92192.02
2018-03-07T06:31:44.811Z,92192.62
2018-03-07T06:34:12.403Z,92193.17
2018-03-07T06:36:40.071Z,92178.67
2018-03-07T06:39:07.718Z,92187.48
2018-03-07T06:41:35.350Z,92195.09
2018-03-07T06:44:02.996Z,92193.88
2018-03-07T06:46:30.630Z,92202.58
2018-03-07T06:48:58.533Z,92203.01
2018-03-07T06:51:26.399Z,92208.31
2018-03-07T06:53:54.042Z,92206.64
2018-03-07T06:56:21.658Z,92211.40
2018-03-07T06:58:49.313Z,92206.83
2018-03-07T07:01:16.912Z,92213.08
2018-03-07T07:03:44.600Z,92211.22
2018-03-07T07:06:12.196Z,92214.77
2018-03-07T07:08:39.906Z,92229.70
2018-03-07T07:11:07.588Z,92233.70
2018-03-07T07:13:35.192Z,92230.73
2018-03-07T07:16:02.815Z,92236.20
2018-03-07T07:18:30.479Z,92235.42
2018-03-07T07:20:58.120Z,92236.97
2018-03-07T07:23:25.763Z,92241.52
2018-03-07T07:25:53.374Z,92245.42
2018-03-07T07:28:21.011Z,92256.56
2018-03-07T07:30:48.671Z,92249.63
2018-03-07T07:33:16.370Z,92258.58
2018-03-07T07:35:44.043Z,92252.08
2018-03-07T07:38:11.693Z,92256.92
2018-03-07T07:40:39.356Z,92262.91
2018-03-07T07:43:07.016Z,92262.30
2018-03-07T07:45:34.627Z,92264.04
2018-03-07T07:48:02.427Z,92256.78
2018-03-07T07:50:30.058Z,92260.14
2018-03-07T07:52:57.694Z,92259.86
2018-03-07T07:55:25.330Z,92262.48
2018-03-07T07:57:52.907Z,92264.70
2018-03-07T08:00:20.550Z,92268.44
2018-03-07T08:02:48.174Z,92265.27
2018-03-07T08:05:15.839Z,92272.14
2018-03-07T08:07:43.488Z,92268.70
2018-03-07T08:10:11.137Z,92269.36
2018-03-07T08:12:38.774Z,92270.69
2018-03-07T08:15:06.457Z,92269.20
2018-03-07T08:17:34.186Z,92278.63
2018-03-07T08:20:01.818Z,92278.06
2018-03-07T08:22:29.430Z,92274.98
2018-03-07T08:24:57.110Z,92275.07
2018-03-07T08:27:24.712Z,92277.09
2018-03-07T08:29:52.374Z,92277.84
2018-03-07T08:32:19.974Z,92281.33
2018-03-07T08:34:47.553Z,92280.25
2018-03-07T08:37:15.283Z,92281.38
2018-03-07T08:39:43.141Z,92277.88
2018-03-07T08:42:10.754Z,92274.60
2018-03-07T08:44:38.409Z,92275.65
2018-03-07T08:47:06.039Z,92274.29
2018-03-07T08:49:33.701Z,92278.70
2018-03-07T08:52:01.496Z,92281.48
2018-03-07T08:54:29.125Z,92281.72
2018-03-07T08:56:56.727Z,92280.01
2018-03-07T08:59:24.423Z,92283.11
2018-03-07T09:01:52.039Z,92277.35
2018-03-07T09:04:19.703Z,92276.28
2018-03-07T09:06:47.354Z,92278.09
2018-03-07T09:09:14.988Z,92280.60
2018-03-07T09:11:42.667Z,92280.14
2018-03-07T09:14:10.271Z,92279.30
2018-03-07T09:16:37.859Z,92280.98
2018-03-07T09:19:05.488Z,92285.95
2018-03-07T09:21:33.088Z,92288.72
2018-03-07T09:24:00.771Z,92285.56
2018-03-07T09:26:28.411Z,92294.28
2018-03-07T09:28:56.113Z,92292.78
2018-03-07T09:31:24.885Z,92287.16
2018-03-07T09:33:52.478Z,92289.46
2018-03-07T09:36:20.160Z,92295.78
2018-03-07T09:38:47.833Z,92291.11
2018-03-07T09:41:15.478Z,92296.60
2018-03-07T09:43:43.110Z,92294.82
2018-03-07T09:46:10.840Z,92298.56
2018-03-07T09:48:38.552Z,92302.93
2018-03-07T09:51:06.190Z,92307.40
2018-03-07T09:53:33.938Z,92306.24
2018-03-07T09:56:01.582Z,92313.14
2018-03-07T09:58:29.370Z,92307.37
2018-03-07T10:00:57.053Z,92310.78
2018-03-07T10:03:24.733Z,92310.59
2018-03-07T10:05:52.457Z,92318.20
2018-03-07T10:08:20.099Z,92314.92
2018-03-07T10:10:47.763Z,92311.20
2018-03-07T10:13:16.374Z,92325.55
2018-03-07T10:15:44.035Z,92323.08
2018-03-07T10:18:11.713Z,92327.67
2018-03-07T10:20:39.436Z,92325.72
2018-03-07T10:23:07.085Z,92327.49
2018-03-07T10:25:34.774Z,92332.38
2018-03-07T10:28:02.457Z,92332.02
2018-03-07T10:30:30.065Z,92332.67
2018-03-07T10:32:57.773Z,92345.06
2018-03-07T10:35:25.430Z,92343.81
2018-03-07T10:37:53.102Z,92343.06
2018-03-07T10:40:20.718Z,92347.46
2018-03-07T10:42:48.368Z,92351.55
2018-03-07T10:45:16.024Z,92347.91
2018-03-07T10:47:44.008Z,92355.81
2018-03-07T10:50:11.715Z,92359.30
2018-03-07T10:52:39.343Z,92360.84
2018-03-07T10:55:07.010Z,92361.40
2018-03-07T10:57:34.655Z,92366.03
2018-03-07T11:00:02.279Z,92370.98
2018-03-07T11:02:29.879Z,92371.20
2018-03-07T11:04:57.784Z,92375.72
2018-03-07T11:07:25.446Z,92369.61
2018-03-07T11:09:53.103Z,92373.20
2018-03-07T11:12:20.742Z,92374.49
2018-03-07T11:14:48.341Z,92376.67
2018-03-07T11:17:15.991Z,92373.05
2018-03-07T11:19:43.612Z,92378.34
2018-03-07T11:22:11.323Z,92373.16
2018-03-07T11:24:38.979Z,92368.03
2018-03-07T11:27:06.633Z,92367.47
2018-03-07T11:29:34.300Z,92361.70
2018-03-07T11:32:01.956Z,92362.73
2018-03-07T11:34:29.615Z,92361.38
2018-03-07T11:36:57.210Z,92361.91
2018-03-07T11:39:24.861Z,92365.31
2018-03-07T11:44:19.385Z,92360.55
2018-03-07T11:46:47.068Z,92361.30
2018-03-07T11:49:14.734Z,92357.00
2018-03-07T11:51:42.400Z,92347.83
2018-03-07T11:54:10.128Z,92353.14
2018-03-07T11:56:37.892Z,92350.28
2018-03-07T11:59:05.629Z,92349.77
2018-03-07T12:01:33.227Z,92344.84
2018-03-07T12:04:00.856Z,92343.81
2018-03-07T12:06:28.509Z,92357.27
2018-03-07T12:08:56.120Z,92352.44
2018-03-07T12:11:23.789Z,92350.80
2018-03-07T12:13:51.437Z,92354.66
2018-03-07T12:16:20.076Z,92357.64
2018-03-07T12:18:47.677Z,92352.06
2018-03-07T12:21:15.361Z,92352.18
2018-03-07T12:23:43.018Z,92352.62
2018-03-07T12:26:10.760Z,92352.88
2018-03-07T12:28:38.372Z,92357.02
2018-03-07T12:31:06.046Z,92353.53
2018-03-07T12:33:33.712Z,92363.13
2018-03-07T12:36:01.350Z,92349.98
2018-03-07T12:38:29.040Z,92356.52
2018-03-07T12:40:57.551Z,92357.80
2018-03-07T12:43:25.219Z,92351.45
2018-03-07T12:45:53.453Z,92353.52
2018-03-07T12:48:21.088Z,92350.89
2018-03-07T12:50:50.058Z,92354.13
2018-03-07T12:53:17.875Z,92362.11
2018-03-07T12:55:45.580Z,92362.80
2018-03-07T12:58:13.225Z,92371.02
2018-03-07T13:00:40.859Z,92374.32
2018-03-07T13:03:08.510Z,92375.12
2018-03-07T13:05:36.172Z,92381.14
2018-03-07T13:08:03.814Z,92374.08
2018-03-07T13:10:31.461Z,92379.44
2018-03-07T13:12:59.205Z,92372.17
2018-03-07T13:15:26.798Z,92375.27
2018-03-07T13:17:54.443Z,92369.95
2018-03-07T13:20:22.054Z,92368.33
2018-03-07T13:22:49.752Z,92374.53
2018-03-07T13:25:17.401Z,92375.88
2018-03-07T13:27:45.014Z,92375.96
2018-03-07T13:30:12.719Z,92376.20
2018-03-07T13:32:40.342Z,92370.56
2018-03-07T13:35:07.934Z,92373.84
2018-03-07T13:37:35.636Z,92375.05
2018-03-07T13:40:03.359Z,92376.27
2018-03-07T13:42:31.029Z,92375.81
2018-03-07T13:44:58.699Z,92375.94
2018-03-07T13:47:26.338Z,92371.45
2018-03-07T13:49:53.989Z,92366.02
2018-03-07T13:52:21.585Z,92372.63
2018-03-07T13:54:49.892Z,92372.77
2018-03-07T13:57:17.497Z,92373.63
2018-03-07T13:59:45.161Z,92376.55
2018-03-07T14:02:12.862Z,92377.69
2018-03-07T14:04:40.745Z,92367.10
2018-03-07T14:07:08.952Z,92367.33
2018-03-07T14:09:36.571Z,92366.33
2018-03-07T14:12:04.313Z,92359.73
2018-03-07T14:14:31.996Z,92349.91
2018-03-07T14:16:59.724Z,92358.73
2018-03-07T14:19:27.396Z,92349.98
2018-03-07T14:21:55.066Z,92349.50
2018-03-07T14:24:22.667Z,92355.23
2018-03-07T14:26:50.308Z,92348.86
2018-03-07T14:29:17.982Z,92345.48
2018-03-07T14:31:45.587Z,92344.02
2018-03-07T14:34:13.254Z,92345.79
2018-03-07T14:36:40.879Z,92351.64
2018-03-07T14:39:08.576Z,92347.27
2018-03-07T14:41:36.225Z,92347.84
2018-03-07T14:44:03.934Z,92351.48
2018-03-07T14:46:31.657Z,92356.50
2018-03-07T14:48:59.317Z,92362.42
2018-03-07T14:51:27.027Z,92364.54
2018-03-07T14:53:55.573Z,92369.69
2018-03-07T14:56:23.703Z,92372.70
2018-03-07T14:58:51.515Z,92374.05
2018-03-07T15:01:19.155Z,92368.66
2018-03-07T15:03:47.570Z,92366.69
2018-03-07T15:06:15.266Z,92370.97
2018-03-07T15:08:42.886Z,92368.28
2018-03-07T15:11:10.595Z,92365.13
2018-03-07T15:13:38.335Z,92365.61
2018-03-07T15:16:05.985Z,92365.22
2018-03-07T15:18:33.655Z,92368.06
2018-03-07T15:21:01.377Z,92362.77
2018-03-07T15:23:29.043Z,92369.10
2018-03-07T15:25:57.909Z,92365.88
2018-03-07T15:28:25.543Z,92375.27
2018-03-07T15:30:54.294Z,92375.39
2018-03-07T15:33:22.020Z,92374.23
2018-03-07T15:35:49.871Z,92379.25
2018-03-07T15:38:17.575Z,92377.50
2018-03-07T15:40:45.266Z,92379.23
2018-03-07T15:43:12.920Z,92380.67
2018-03-07T15:45:40.595Z,92383.67
2018-03-07T15:48:08.349Z,92382.81
2018-03-07T15:50:35.988Z,92380.69
2018-03-07T15:53:03.653Z,92382.23
2018-03-07T15:55:31.369Z,92381.95
2018-03-07T15:57:59.216Z,92389.61
2018-03-07T16:00:26.880Z,92397.30
2018-03-07T16:02:55.311Z,92399.29
2018-03-07T16:05:22.982Z,92399.59
2018-03-07T16:07:50.679Z,92402.06
2018-03-07T16:10:18.366Z,92411.92
2018-03-07T16:12:46.006Z,92415.78
2018-03-07T16:15:13.660Z,92413.89
2018-03-07T16:17:41.354Z,92413.25
2018-03-07T16:20:09.014Z,92416.38
2018-03-07T16:22:36.668Z,92420.94
2018-03-07T16:25:04.358Z,92420.95
2018-03-07T16:27:31.977Z,92423.13
2018-03-07T16:29:59.887Z,92429.30
2018-03-07T16:32:27.586Z,92425.05
2018-03-07T16:34:55.252Z,92438.91
2018-03-07T16:37:22.865Z,92435.47
2018-03-07T16:39:50.549Z,92437.95
2018-03-07T16:42:18.229Z,92434.03
2018-03-07T16:44:45.902Z,92434.42
2018-03-07T16:47:13.585Z,92435.69
2018-03-07T16:49:41.283Z,92444.62
2018-03-07T16:52:08.962Z,92445.54
2018-03-07T16:54:36.613Z,92456.23
2018-03-07T16:57:04.330Z,92453.88
2018-03-07T16:59:32.324Z,92457.73
2018-03-07T17:01:59.995Z,92463.09
2018-03-07T17:04:28.847Z,92460.77
2018-03-07T17:06:56.506Z,92463.51
2018-03-07T17:09:25.404Z,92464.17
2018-03-07T17:11:53.153Z,92469.60
2018-03-07T17:14:21.967Z,92469.55
2018-03-07T17:16:49.779Z,92477.59
2018-03-07T17:19:17.468Z,92480.51
2018-03-07T17:21:46.027Z,92490.97
2018-03-07T17:24:13.915Z,92496.74
2018-03-07T17:26:41.765Z,92499.13
2018-03-07T17:29:09.738Z,92502.61
2018-03-07T17:31:38.103Z,92505.86
2018-03-07T17:34:05.785Z,92506.39
2018-03-07T17:36:33.596Z,92516.86
2018-03-07T17:39:01.443Z,92518.45
2018-03-07T17:41:29.250Z,92518.84
2018-03-07T17:43:56.983Z,92514.58
2018-03-07T17:46:25.516Z,92525.70
2018-03-07T17:48:53.223Z,92530.69
2018-03-07T17:51:21.152Z,92537.63
2018-03-07T17:53:49.176Z,92539.45
2018-03-07T17:56:16.874Z,92546.96
2018-03-07T17:58:45.041Z,92544.95
2018-03-07T18:01:12.778Z,92558.20
2018-03-07T18:03:40.465Z,92563.13
2018-03-07T18:06:08.181Z,92567.33
2018-03-07T18:08:36.801Z,92567.75
2018-03-07T18:11:04.469Z,92572.16
2018-03-07T18:13:32.163Z,92580.58
2018-03-07T18:15:59.840Z,92582.48
2018-03-07T18:18:27.479Z,92598.23
2018-03-07T18:20:55.182Z,92597.73
2018-03-07T18:23:22.818Z,92604.36
2018-03-07T18:25:50.597Z,92611.88
2018-03-07T18:28:18.452Z,92620.68
2018-03-07T18:30:46.160Z,92626.57
2018-03-07T18:33:13.832Z,92635.23
2018-03-07T18:35:41.522Z,92641.46
2018-03-07T18:38:09.189Z,92644.81
2018-03-07T18:40:36.855Z,92645.38
2018-03-07T18:43:04.613Z,92655.48
2018-03-07T18:45:32.656Z,92668.19
2018-03-07T18:48:00.527Z,92671.74
2018-03-07T18:50:29.361Z,92681.16
2018-03-07T18:52:58.583Z,92678.55
2018-03-07T18:55:27.081Z,92681.23
2018-03-07T18:57:55.271Z,92690.07
2018-03-07T19:00:24.270Z,92692.89
2018-03-07T19:02:51.998Z,92698.81
2018-03-07T19:05:19.775Z,92706.83
2018-03-07T19:07:47.574Z,92720.52
2018-03-07T19:10:15.319Z,92720.34
2018-03-07T19:12:44.220Z,92720.25
2018-03-07T19:15:12.030Z,92722.80
2018-03-07T19:17:39.842Z,92726.52
2018-03-07T19:20:07.642Z,92732.16
2018-03-07T19:22:35.366Z,92737.09
2018-03-07T19:25:03.767Z,92736.53
2018-03-07T19:27:31.688Z,92749.34
2018-03-07T19:29:59.724Z,92747.58
2018-03-07T19:32:27.749Z,92748.97
2018-03-07T19:34:56.045Z,92751.48
2018-03-07T19:37:23.991Z,92757.73
2018-03-07T19:39:52.357Z,92768.19
2018-03-07T19:42:21.520Z,92773.09
2018-03-07T19:44:49.370Z,92773.80
2018-03-07T19:47:17.066Z,92779.33
2018-03-07T19:49:46.897Z,92783.73
2018-03-07T19:52:14.842Z,92794.49
2018-03-07T19:54:42.656Z,92789.63
2018-03-07T19:57:10.339Z,92800.77
2018-03-07T19:59:38.154Z,92800.54
2018-03-07T20:02:05.943Z,92805.20
2018-03-07T20:04:33.835Z,92809.30
2018-03-07T20:07:01.623Z,92810.50
2018-03-07T20:09:29.356Z,92816.55
2018-03-07T20:11:57.155Z,92824.73
2018-03-07T20:14:26.174Z,92827.39
2018-03-07T20:16:53.928Z,92829.56
2018-03-07T20:19:21.656Z,92831.26
2018-03-07T20:21:50.537Z,92836.67
2018-03-07T20:24:18.301Z,92838.52
2018-03-07T20:26:46.370Z,92842.30
2018-03-07T20:29:14.634Z,92843.58
2018-03-07T20:31:42.817Z,92841.88
2018-03-07T20:34:10.644Z,92850.06
2018-03-07T20:36:38.523Z,92846.20
2018-03-07T20:39:06.678Z,92848.98
2018-03-07T20:41:34.543Z,92850.45
2018-03-07T20:44:02.237Z,92855.67
2018-03-07T20:46:29.930Z,92848.00
2018-03-07T20:48:57.928Z,92857.76
2018-03-07T20:51:26.217Z,92855.39
2018-03-07T20:53:54.051Z,92856.67
2018-03-07T20:56:21.828Z,92868.31
2018-03-07T20:58:49.552Z,92866.03
2018-03-07T21:01:17.409Z,92865.45
2018-03-07T21:03:45.102Z,92871.37
2018-03-07T21:06:12.719Z,92876.08
2018-03-07T21:08:40.523Z,92878.47
2018-03-07T21:11:08.287Z,92877.38
2018-03-07T21:13:37.060Z,92887.83
2018-03-07T21:16:04.752Z,92888.22
2018-03-07T21:18:32.559Z,92889.00
2018-03-07T21:21:00.199Z,92890.09
2018-03-07T21:23:27.891Z,92888.52
2018-03-07T21:25:55.800Z,92891.78
2018-03-07T21:28:23.673Z,92890.79
2018-03-07T21:30:51.425Z,92890.55
2018-03-07T21:33:19.276Z,92891.26
2018-03-07T21:35:46.978Z,92894.06
2018-03-07T21:38:14.660Z,92893.32
2018-03-07T21:40:42.417Z,92892.72
2018-03-07T21:43:10.149Z,92891.53
2018-03-07T21:45:37.752Z,92898.44
2018-03-07T21:48:05.369Z,92895.77
2018-03-07T21:50:33.031Z,92895.94
2018-03-07T21:53:00.646Z,92893.80
2018-03-07T21:55:28.314Z,92901.61
2018-03-07T21:57:55.899Z,92898.25
2018-03-07T22:00:23.635Z,92900.81
2018-03-07T22:02:52.128Z,92902.98
2018-03-07T22:05:19.780Z,92906.05
2018-03-07T22:07:47.501Z,92906.05
2018-03-07T22:10:15.195Z,92912.16
2018-03-07T22:12:43.556Z,92914.23
2018-03-07T22:15:11.375Z,92916.88
2018-03-07T22:17:39.243Z,92915.80
2018-03-07T22:20:06.874Z,92925.25
2018-03-07T22:22:35.283Z,92921.77
2018-03-07T22:25:02.965Z,92920.78
2018-03-07T22:27:30.741Z,92924.23
2018-03-07T22:29:58.898Z,92924.34
2018-03-07T22:32:26.847Z,92925.62
2018-03-07T22:34:54.450Z,92926.91
2018-03-07T22:37:22.037Z,92925.56
2018-03-07T22:39:49.708Z,92929.20
2018-03-07T22:42:17.303Z,92937.39
2018-03-07T22:44:44.966Z,92932.56
2018-03-07T22:47:13.135Z,92937.89
2018-03-07T22:49:40.770Z,92939.17
2018-03-07T22:52:08.393Z,92932.77
2018-03-07T22:54:36.059Z,92940.25
2018-03-07T22:57:03.744Z,92936.51
2018-03-07T22:59:31.321Z,92940.45
2018-03-07T23:01:58.963Z,92944.20
2018-03-07T23:04:26.631Z,92941.14
2018-03-07T23:06:54.219Z,92940.69
2018-03-07T23:09:21.952Z,92950.24
2018-03-07T23:11:49.546Z,92948.87
2018-03-07T23:14:17.210Z,92947.09
2018-03-07T23:16:44.885Z,92951.00
2018-03-07T23:19:12.533Z,92958.98
2018-03-07T23:21:40.142Z,92963.33
2018-03-07T23:24:07.905Z,92969.64
2018-03-07T23:26:35.561Z,92970.62
2018-03-07T23:29:03.230Z,92977.42
2018-03-07T23:31:31.068Z,92982.26
2018-03-07T23:33:58.742Z,92976.24
2018-03-07T23:36:26.405Z,92983.25
2018-03-07T23:38:54.248Z,92980.39
2018-03-07T23:41:21.890Z,92981.56
2018-03-07T23:43:49.510Z,92977.72
2018-03-07T23:46:17.179Z,92975.36
2018-03-07T23:48:44.768Z,92980.19
2018-03-07T23:51:12.369Z,92979.80
2018-03-07T23:53:40.044Z,92979.40
2018-03-07T23:56:07.615Z,92983.64
2018-03-07T23:58:36.155Z,92972.80
